createdAt,value
2022-09-27T00:01:03.581Z,100.00
2022-09-27T00:03:30.626Z,100.00
2022-09-27T00:06:25.230Z,100.00
2022-09-27T00:08:52.068Z,100.00
2022-09-27T00:11:27.829Z,100.00
2022-09-27T00:13:55.739Z,100.00
2022-09-27T00:16:24.128Z,100.00
2022-09-27T00:18:51.155Z,100.00
2022-09-27T00:21:18.375Z,100.00
2022-09-27T00:23:45.373Z,100.00
2022-09-27T00:26:13.848Z,100.00
2022-09-27T00:28:40.885Z,100.00
2022-09-27T00:31:17.723Z,100.00
2022-09-27T00:33:44.406Z,100.00
2022-09-27T00:36:11.102Z,100.00
2022-09-27T00:38:37.806Z,100.00
2022-09-27T00:41:04.618Z,100.00
2022-09-27T00:43:45.848Z,100.00
2022-09-27T00:46:18.379Z,100.00
2022-09-27T00:48:46.305Z,100.00
2022-09-27T00:51:13.005Z,100.00
2022-09-27T00:53:49.280Z,100.00
2022-09-27T00:56:22.307Z,100.00
2022-09-27T00:58:56.055Z,100.00
2022-09-27T01:01:22.977Z,100.00
2022-09-27T01:04:00.665Z,100.00
2022-09-27T01:06:27.436Z,100.00
2022-09-27T01:08:54.004Z,100.00
2022-09-27T01:11:32.512Z,100.00
2022-09-27T01:13:59.161Z,100.00
2022-09-27T01:16:54.981Z,100.00
2022-09-27T01:19:57.307Z,100.00
2022-09-27T01:22:28.712Z,100.00
2022-09-27T01:25:01.590Z,100.00
2022-09-27T01:27:53.293Z,100.00
2022-09-27T01:30:22.908Z,100.00
2022-09-27T01:33:32.227Z,100.00
2022-09-27T01:36:05.629Z,100.00
2022-09-27T01:38:56.330Z,100.00
2022-09-27T01:41:35.726Z,100.00
2022-09-27T01:44:39.144Z,100.00
2022-09-27T01:47:29.025Z,100.00
2022-09-27T01:50:21.286Z,100.00
2022-09-27T01:53:01.628Z,100.00
2022-09-27T01:55:35.751Z,100.00
2022-09-27T01:59:04.008Z,100.00
2022-09-27T02:01:35.028Z,100.00
2022-09-27T02:04:05.175Z,100.00
2022-09-27T02:06:39.199Z,100.00
2022-09-27T02:09:30.951Z,100.00
2022-09-27T02:12:23.013Z,100.00
2022-09-27T02:15:09.829Z,100.00
2022-09-27T02:17:41.082Z,100.00
2022-09-27T02:20:07.928Z,100.00
2022-09-27T02:22:50.413Z,100.00
2022-09-27T02:25:28.224Z,100.00
2022-09-27T02:28:08.677Z,100.00
2022-09-27T02:30:36.510Z,100.00
2022-09-27T02:33:20.473Z,100.00
2022-09-27T02:35:47.493Z,100.00
2022-09-27T02:38:14.250Z,100.00
2022-09-27T02:40:47.059Z,100.00
2022-09-27T02:43:17.286Z,100.00
2022-09-27T02:45:59.844Z,100.00
2022-09-27T02:48:48.074Z,100.00
2022-09-27T02:51:42.183Z,100.00
2022-09-27T02:54:19.040Z,100.00
2022-09-27T02:57:24.544Z,100.00
2022-09-27T03:00:21.914Z,100.00
2022-09-27T03:03:09.824Z,100.00
2022-09-27T03:05:54.537Z,100.00
2022-09-27T03:08:21.640Z,100.00
2022-09-27T03:10:48.671Z,100.00
2022-09-27T03:13:16.427Z,100.00
2022-09-27T03:15:43.782Z,100.00
2022-09-27T03:18:39.837Z,100.00
2022-09-27T03:21:40.110Z,100.00
2022-09-27T03:24:08.668Z,100.00
2022-09-27T03:26:35.337Z,100.00
2022-09-27T03:29:02.053Z,100.00
2022-09-27T03:31:28.809Z,100.00
2022-09-27T03:34:18.634Z,100.00
2022-09-27T03:36:45.460Z,100.00
2022-09-27T03:39:12.075Z,100.00
2022-09-27T03:41:38.673Z,100.00
2022-09-27T03:44:05.424Z,100.00
2022-09-27T03:46:32.300Z,100.00
2022-09-27T03:48:59.073Z,100.00
2022-09-27T03:51:25.802Z,100.00
2022-09-27T03:53:52.513Z,100.00
2022-09-27T03:56:19.217Z,100.00
2022-09-27T03:58:45.836Z,100.00
2022-09-27T04:01:14.539Z,100.00
2022-09-27T04:03:42.718Z,100.00
2022-09-27T04:06:31.082Z,100.00
2022-09-27T04:08:57.732Z,100.00
2022-09-27T04:11:33.309Z,100.00
2022-09-27T04:14:00.016Z,100.00
2022-09-27T04:16:27.582Z,100.00
2022-09-27T04:19:26.635Z,100.00
2022-09-27T04:22:04.176Z,100.00
2022-09-27T04:24:32.974Z,100.00
2022-09-27T04:27:19.561Z,100.00
2022-09-27T04:29:49.786Z,100.00
2022-09-27T04:32:44.389Z,100.00
2022-09-27T04:35:55.889Z,100.00
2022-09-27T04:38:23.965Z,100.00
2022-09-27T04:40:51.601Z,100.00
2022-09-27T04:43:18.540Z,100.00
2022-09-27T04:45:45.338Z,100.00
2022-09-27T04:48:12.459Z,100.00
2022-09-27T04:50:40.312Z,100.00
2022-09-27T04:53:07.486Z,100.00
2022-09-27T04:55:34.345Z,100.00
2022-09-27T04:58:01.573Z,100.00
2022-09-27T05:00:29.144Z,100.00
2022-09-27T05:03:02.994Z,100.00
2022-09-27T05:05:53.339Z,100.00
2022-09-27T05:08:21.044Z,100.00
2022-09-27T05:11:07.644Z,100.00
2022-09-27T05:13:34.348Z,100.00
2022-09-27T05:16:04.380Z,100.00
2022-09-27T05:18:57.735Z,100.00
2022-09-27T05:21:47.028Z,100.00
2022-09-27T05:24:13.813Z,100.00
2022-09-27T05:26:41.845Z,100.00
2022-09-27T05:29:08.479Z,100.00
2022-09-27T05:31:35.287Z,100.00
2022-09-27T05:34:02.492Z,100.00
2022-09-27T05:36:37.248Z,100.00
2022-09-27T05:39:04.871Z,100.00
2022-09-27T05:41:32.760Z,100.00
2022-09-27T05:43:59.857Z,100.00
2022-09-27T05:46:27.391Z,100.00
2022-09-27T05:48:54.128Z,100.00
2022-09-27T05:51:21.097Z,100.00
2022-09-27T05:53:47.969Z,100.00
2022-09-27T05:56:24.849Z,100.00
2022-09-27T05:59:27.765Z,100.00
2022-09-27T06:02:23.837Z,100.00
2022-09-27T06:04:54.734Z,100.00
2022-09-27T06:07:40.673Z,100.00
2022-09-27T06:10:14.325Z,100.00
2022-09-27T06:12:41.923Z,100.00
2022-09-27T06:15:25.614Z,100.00
2022-09-27T06:17:52.261Z,100.00
2022-09-27T06:20:20.882Z,100.00
2022-09-27T06:22:47.924Z,100.00
2022-09-27T06:25:15.018Z,100.00
2022-09-27T06:27:55.137Z,100.00
2022-09-27T06:30:27.089Z,100.00
2022-09-27T06:33:00.858Z,100.00
2022-09-27T06:35:39.278Z,100.00
2022-09-27T06:38:09.208Z,100.00
2022-09-27T06:40:38.763Z,100.00
2022-09-27T06:43:29.383Z,100.00
2022-09-27T06:46:05.772Z,100.00
2022-09-27T06:49:10.746Z,100.00
2022-09-27T06:51:38.667Z,100.00
2022-09-27T06:54:05.640Z,100.00
2022-09-27T06:56:32.290Z,100.00
2022-09-27T06:59:17.691Z,100.00
2022-09-27T07:01:45.411Z,100.00
2022-09-27T07:04:30.672Z,100.00
2022-09-27T07:07:32.483Z,100.00
2022-09-27T07:09:59.422Z,100.00
2022-09-27T07:12:27.459Z,100.00
2022-09-27T07:14:54.233Z,100.00
2022-09-27T07:17:20.869Z,100.00
2022-09-27T07:19:51.325Z,100.00
2022-09-27T07:22:18.189Z,100.00
2022-09-27T07:24:50.592Z,100.00
2022-09-27T07:27:18.225Z,100.00
2022-09-27T07:29:45.440Z,100.00
2022-09-27T07:32:11.981Z,100.00
2022-09-27T07:34:39.034Z,100.00
2022-09-27T07:37:06.472Z,100.00
2022-09-27T07:39:37.901Z,100.00
2022-09-27T07:42:06.123Z,100.00
2022-09-27T07:44:34.467Z,100.00
2022-09-27T07:47:20.113Z,100.00
2022-09-27T07:50:05.141Z,100.00
2022-09-27T07:52:47.598Z,100.00
2022-09-27T07:55:35.105Z,100.00
2022-09-27T07:58:13.634Z,100.00
2022-09-27T08:00:40.925Z,100.00
2022-09-27T08:03:17.579Z,100.00
2022-09-27T08:05:47.444Z,100.00
2022-09-27T08:08:15.833Z,100.00
2022-09-27T08:10:47.439Z,100.00
2022-09-27T08:13:20.178Z,100.00
2022-09-27T08:15:48.713Z,100.00
2022-09-27T08:18:16.389Z,100.00
2022-09-27T08:21:00.894Z,100.00
2022-09-27T08:23:54.083Z,100.00
2022-09-27T08:26:30.463Z,100.00
2022-09-27T08:29:04.660Z,100.00
2022-09-27T08:31:37.748Z,100.00
2022-09-27T08:34:05.050Z,100.00
2022-09-27T08:36:35.865Z,100.00
2022-09-27T08:39:04.079Z,100.00
2022-09-27T08:42:24.740Z,100.00
2022-09-27T08:45:03.420Z,100.00
2022-09-27T08:47:40.577Z,100.00
2022-09-27T08:50:30.756Z,100.00
2022-09-27T08:53:25.648Z,100.00
2022-09-27T08:55:59.918Z,100.00
2022-09-27T08:58:33.072Z,100.00
2022-09-27T09:01:14.833Z,100.00
2022-09-27T09:03:58.177Z,100.00
2022-09-27T09:06:34.675Z,100.00
2022-09-27T09:09:13.466Z,100.00
2022-09-27T09:12:08.015Z,100.00
2022-09-27T09:14:59.738Z,100.00
2022-09-27T09:17:47.786Z,100.00
2022-09-27T09:20:53.108Z,100.00
2022-09-27T09:23:36.985Z,97.48
2022-09-27T09:26:38.472Z,97.82
2022-09-27T09:29:14.229Z,98.35
2022-09-27T09:31:46.037Z,98.10
2022-09-27T09:34:14.328Z,98.08
2022-09-27T09:36:59.395Z,97.57
2022-09-27T09:39:39.505Z,96.74
2022-09-27T09:42:19.806Z,96.00
2022-09-27T09:44:54.191Z,95.85
2022-09-27T09:47:30.184Z,95.64
2022-09-27T09:50:02.547Z,95.78
2022-09-27T09:52:40.374Z,96.23
2022-09-27T09:55:33.380Z,97.12
2022-09-27T09:58:51.287Z,99.93
2022-09-27T10:01:27.676Z,100.00
2022-09-27T10:03:56.762Z,100.00
2022-09-27T10:06:25.221Z,100.00
2022-09-27T10:08:54.772Z,100.00
2022-09-27T10:11:40.986Z,100.00
2022-09-27T10:14:18.472Z,100.00
2022-09-27T10:16:53.843Z,100.00
2022-09-27T10:19:33.075Z,100.00
2022-09-27T10:22:13.541Z,100.00
2022-09-27T10:25:01.873Z,100.00
2022-09-27T10:27:56.316Z,100.00
2022-09-27T10:30:29.371Z,100.00
2022-09-27T10:33:00.666Z,100.00
2022-09-27T10:35:49.241Z,100.00
2022-09-27T10:38:31.942Z,100.00
2022-09-27T10:41:31.593Z,100.00
2022-09-27T10:44:29.306Z,100.00
2022-09-27T10:47:26.274Z,100.00
2022-09-27T10:50:49.834Z,100.00
2022-09-27T10:53:36.828Z,100.00
2022-09-27T10:56:25.038Z,100.00
2022-09-27T10:58:52.452Z,100.00
2022-09-27T11:01:20.768Z,100.00
2022-09-27T11:04:03.140Z,100.00
2022-09-27T11:06:37.683Z,100.00
2022-09-27T11:09:26.555Z,100.00
2022-09-27T11:12:13.084Z,100.00
2022-09-27T11:14:41.217Z,100.00
2022-09-27T11:17:20.310Z,100.00
2022-09-27T11:20:16.638Z,100.00
2022-09-27T11:23:23.306Z,100.00
2022-09-27T11:26:14.694Z,100.00
2022-09-27T11:33:13.587Z,100.00
2022-09-27T11:36:10.393Z,100.00
2022-09-27T11:39:01.773Z,100.00
2022-09-27T11:41:43.111Z,100.00
2022-09-27T11:44:35.028Z,100.00
2022-09-27T11:47:26.198Z,100.00
2022-09-27T11:50:08.389Z,100.00
2022-09-27T11:52:56.877Z,100.00
2022-09-27T11:55:32.567Z,100.00
2022-09-27T11:58:14.475Z,100.00
2022-09-27T12:01:13.507Z,100.00
2022-09-27T12:04:12.985Z,100.00
2022-09-27T12:07:12.567Z,100.00
2022-09-27T12:09:46.044Z,100.00
2022-09-27T12:12:19.203Z,100.00
2022-09-27T12:14:56.383Z,100.00
2022-09-27T12:17:28.394Z,100.00
2022-09-27T12:19:59.954Z,100.00
2022-09-27T12:23:02.500Z,100.00
2022-09-27T12:26:03.344Z,100.00
2022-09-27T12:28:54.165Z,100.00
2022-09-27T12:31:32.055Z,100.00
2022-09-27T12:34:21.174Z,100.00
2022-09-27T12:36:56.050Z,100.00
2022-09-27T12:39:28.824Z,100.00
2022-09-27T12:42:21.603Z,100.00
2022-09-27T12:44:50.886Z,100.00
2022-09-27T12:47:27.691Z,100.00
2022-09-27T12:50:06.866Z,100.00
2022-09-27T12:52:41.524Z,100.00
2022-09-27T12:55:27.925Z,100.00
2022-09-27T12:58:29.305Z,100.00
2022-09-27T13:01:00.806Z,100.00
2022-09-27T13:03:59.519Z,99.90
2022-09-27T13:06:41.544Z,98.87
2022-09-27T13:09:11.245Z,95.12
2022-09-27T13:12:01.305Z,93.37
2022-09-27T13:14:39.253Z,95.17
2022-09-27T13:17:06.333Z,94.16
2022-09-27T13:19:35.959Z,92.03
2022-09-27T13:22:49.441Z,93.77
2022-09-27T13:26:04.003Z,91.71
2022-09-27T13:28:59.192Z,90.10
2022-09-27T13:31:54.445Z,92.75
2022-09-27T13:34:44.657Z,94.69
2022-09-27T13:37:40.005Z,95.60
2022-09-27T13:40:28.438Z,92.39
2022-09-27T13:43:13.113Z,97.23
2022-09-27T13:46:00.127Z,90.94
2022-09-27T13:48:32.615Z,92.46
2022-09-27T13:51:03.378Z,91.57
2022-09-27T13:53:35.320Z,91.58
2022-09-27T13:56:02.471Z,92.58
2022-09-27T13:58:43.523Z,92.83
2022-09-27T14:01:42.088Z,91.31
2022-09-27T14:04:18.338Z,92.38
2022-09-27T14:06:50.092Z,90.52
2022-09-27T14:09:40.325Z,91.94
2022-09-27T14:12:27.305Z,91.15
2022-09-27T14:14:55.950Z,90.91
2022-09-27T14:17:23.901Z,92.06
2022-09-27T14:19:51.773Z,88.91
2022-09-27T14:22:22.062Z,89.11
2022-09-27T14:25:00.341Z,90.67
2022-09-27T14:27:37.869Z,90.00
2022-09-27T14:30:27.954Z,87.84
2022-09-27T14:33:34.271Z,86.50
2022-09-27T14:36:27.263Z,88.57
2022-09-27T14:38:58.921Z,88.61
2022-09-27T14:41:37.980Z,90.32
2022-09-27T14:44:04.743Z,90.98
2022-09-27T14:46:32.478Z,87.05
2022-09-27T14:49:11.349Z,90.30
2022-09-27T14:51:38.582Z,93.81
2022-09-27T14:54:07.126Z,96.50
2022-09-27T14:56:37.444Z,99.32
2022-09-27T14:59:12.514Z,100.00
2022-09-27T15:01:40.179Z,100.00
2022-09-27T15:04:13.234Z,100.00
2022-09-27T15:06:40.023Z,100.00
2022-09-27T15:09:10.131Z,100.00
2022-09-27T15:11:39.204Z,100.00
2022-09-27T15:14:06.046Z,100.00
2022-09-27T15:16:33.834Z,100.00
2022-09-27T15:19:03.814Z,100.00
2022-09-27T15:21:36.333Z,100.00
2022-09-27T15:24:04.187Z,100.00
2022-09-27T15:26:47.508Z,100.00
2022-09-27T15:29:22.975Z,100.00
2022-09-27T15:32:05.428Z,100.00
2022-09-27T15:34:34.369Z,99.96
2022-09-27T15:37:06.248Z,99.33
2022-09-27T15:39:38.375Z,97.87
2022-09-27T15:42:17.327Z,95.25
2022-09-27T15:44:45.519Z,95.81
2022-09-27T15:47:42.851Z,95.79
2022-09-27T15:50:15.524Z,96.08
2022-09-27T15:52:51.204Z,95.93
2022-09-27T15:55:20.248Z,95.54
2022-09-27T15:57:53.295Z,96.25
2022-09-27T16:00:20.705Z,96.03
2022-09-27T16:02:47.609Z,94.63
2022-09-27T16:05:14.344Z,96.61
2022-09-27T16:07:40.921Z,94.51
2022-09-27T16:10:36.541Z,94.06
2022-09-27T16:13:03.370Z,94.11
2022-09-27T16:15:31.003Z,93.84
2022-09-27T16:17:57.945Z,93.60
2022-09-27T16:20:27.306Z,93.20
2022-09-27T16:22:55.420Z,93.35
2022-09-27T16:25:23.393Z,93.37
2022-09-27T16:27:50.170Z,93.62
2022-09-27T16:30:17.245Z,93.61
2022-09-27T16:32:48.649Z,94.75
2022-09-27T16:35:16.919Z,94.96
2022-09-27T16:37:43.669Z,93.09
2022-09-27T16:40:11.730Z,92.77
2022-09-27T16:42:39.212Z,93.94
2022-09-27T16:45:10.501Z,93.08
2022-09-27T16:47:39.521Z,93.26
2022-09-27T16:50:25.328Z,92.42
2022-09-27T16:52:52.234Z,92.83
2022-09-27T16:55:20.736Z,91.65
2022-09-27T16:57:48.109Z,94.58
2022-09-27T17:00:15.549Z,93.60
2022-09-27T17:02:43.961Z,94.55
2022-09-27T17:05:10.854Z,95.15
2022-09-27T17:07:37.435Z,93.93
2022-09-27T17:10:04.930Z,94.77
2022-09-27T17:12:32.444Z,95.34
2022-09-27T17:14:59.571Z,96.41
2022-09-27T17:17:26.810Z,97.24
2022-09-27T17:19:53.385Z,96.92
2022-09-27T17:22:20.010Z,97.60
2022-09-27T17:24:46.693Z,97.77
2022-09-27T17:27:13.412Z,97.50
2022-09-27T17:29:39.984Z,97.25
2022-09-27T17:32:08.713Z,96.94
2022-09-27T17:34:36.476Z,95.75
2022-09-27T17:37:03.119Z,95.34
2022-09-27T17:39:29.669Z,95.00
2022-09-27T17:41:56.396Z,95.62
2022-09-27T17:44:23.781Z,95.71
2022-09-27T17:47:10.340Z,95.78
2022-09-27T17:49:55.482Z,95.53
2022-09-27T17:52:23.444Z,96.81
2022-09-27T17:54:51.677Z,96.72
2022-09-27T17:57:18.167Z,97.84
2022-09-27T17:59:44.800Z,97.41
2022-09-27T18:02:11.483Z,95.77
2022-09-27T18:04:38.252Z,97.86
2022-09-27T18:07:04.975Z,97.89
2022-09-27T18:09:31.504Z,96.52
2022-09-27T18:11:58.119Z,95.88
2022-09-27T18:14:26.607Z,95.01
2022-09-27T18:16:57.669Z,95.52
2022-09-27T18:19:24.606Z,95.70
2022-09-27T18:21:51.633Z,94.87
2022-09-27T18:24:18.265Z,94.62
2022-09-27T18:26:48.442Z,96.81
2022-09-27T18:29:18.521Z,95.54
2022-09-27T18:31:49.003Z,94.93
2022-09-27T18:34:20.181Z,95.47
2022-09-27T18:36:46.992Z,94.90
2022-09-27T18:39:18.864Z,94.82
2022-09-27T18:41:48.450Z,95.39
2022-09-27T18:44:15.439Z,94.28
2022-09-27T18:46:42.652Z,94.17
2022-09-27T18:49:14.080Z,94.43
2022-09-27T18:51:44.269Z,93.83
2022-09-27T18:54:19.592Z,93.93
2022-09-27T18:56:47.671Z,93.77
2022-09-27T18:59:14.977Z,92.92
2022-09-27T19:01:45.171Z,92.67
2022-09-27T19:04:21.628Z,92.53
2022-09-27T19:06:51.108Z,92.99
2022-09-27T19:09:17.952Z,93.06
2022-09-27T19:11:45.084Z,93.32
2022-09-27T19:14:16.527Z,93.41
2022-09-27T19:16:44.766Z,94.53
2022-09-27T19:19:11.266Z,94.52
2022-09-27T19:21:37.867Z,95.09
2022-09-27T19:24:04.451Z,95.52
2022-09-27T19:26:31.072Z,94.66
2022-09-27T19:28:58.843Z,94.86
2022-09-27T19:31:26.743Z,95.14
2022-09-27T19:33:59.063Z,94.80
2022-09-27T19:36:26.867Z,94.89
2022-09-27T19:38:53.507Z,94.90
2022-09-27T19:41:20.128Z,94.94
2022-09-27T19:43:54.255Z,94.70
2022-09-27T19:46:22.292Z,94.95
2022-09-27T19:48:49.966Z,95.01
2022-09-27T19:51:25.299Z,95.43
2022-09-27T19:53:53.210Z,95.69
2022-09-27T19:56:21.118Z,94.75
2022-09-27T19:58:47.781Z,95.61
2022-09-27T20:01:15.853Z,95.58
2022-09-27T20:03:44.011Z,95.79
2022-09-27T20:06:15.912Z,97.06
2022-09-27T20:08:43.859Z,98.68
2022-09-27T20:11:18.716Z,98.57
2022-09-27T20:13:45.494Z,98.38
2022-09-27T20:16:14.643Z,98.38
2022-09-27T20:18:46.383Z,98.30
2022-09-27T20:21:13.766Z,97.83
2022-09-27T20:23:40.750Z,97.29
2022-09-27T20:26:10.248Z,97.54
2022-09-27T20:28:48.137Z,97.91
2022-09-27T20:31:18.401Z,97.86
2022-09-27T20:33:46.616Z,99.05
2022-09-27T20:36:19.261Z,98.87
2022-09-27T20:38:48.409Z,98.42
2022-09-27T20:41:18.180Z,98.19
2022-09-27T20:43:45.857Z,97.79
2022-09-27T20:46:17.770Z,97.81
2022-09-27T20:48:46.569Z,98.61
2022-09-27T20:51:14.639Z,99.24
2022-09-27T20:53:43.042Z,99.45
2022-09-27T20:56:21.039Z,99.46
2022-09-27T20:58:48.995Z,100.00
2022-09-27T21:01:16.298Z,99.58
2022-09-27T21:03:42.946Z,98.99
2022-09-27T21:06:09.554Z,99.55
2022-09-27T21:08:36.139Z,99.12
2022-09-27T21:11:13.834Z,99.71
2022-09-27T21:13:42.091Z,99.80
2022-09-27T21:16:13.866Z,99.86
2022-09-27T21:18:41.621Z,100.00
2022-09-27T21:21:13.567Z,99.19
2022-09-27T21:23:44.773Z,98.75
2022-09-27T21:26:17.751Z,98.86
2022-09-27T21:28:49.877Z,99.57
2022-09-27T21:31:22.531Z,99.89
2022-09-27T21:33:55.855Z,99.57
2022-09-27T21:36:23.688Z,99.79
2022-09-27T21:38:50.919Z,100.00
2022-09-27T21:41:18.736Z,100.00
2022-09-27T21:43:47.698Z,100.00
2022-09-27T21:46:26.266Z,100.00
2022-09-27T21:48:56.066Z,100.00
2022-09-27T21:51:25.443Z,100.00
2022-09-27T21:53:53.924Z,100.00
2022-09-27T21:56:22.168Z,100.00
2022-09-27T21:58:49.627Z,100.00
2022-09-27T22:01:18.446Z,100.00
2022-09-27T22:03:46.545Z,100.00
2022-09-27T22:06:15.511Z,100.00
2022-09-27T22:08:42.834Z,100.00
2022-09-27T22:11:09.829Z,100.00
2022-09-27T22:13:36.460Z,100.00
2022-09-27T22:16:08.838Z,100.00
2022-09-27T22:18:37.379Z,100.00
2022-09-27T22:21:05.663Z,100.00
2022-09-27T22:23:32.885Z,100.00
2022-09-27T22:26:00.252Z,100.00
2022-09-27T22:28:27.255Z,100.00
2022-09-27T22:30:53.924Z,100.00
2022-09-27T22:33:20.470Z,100.00
2022-09-27T22:35:48.099Z,100.00
2022-09-27T22:38:15.523Z,100.00
2022-09-27T22:40:42.263Z,100.00
2022-09-27T22:43:08.931Z,100.00
2022-09-27T22:45:35.388Z,100.00
2022-09-27T22:48:02.040Z,100.00
2022-09-27T22:50:28.699Z,100.00
2022-09-27T22:52:55.238Z,100.00
2022-09-27T22:55:21.776Z,100.00
2022-09-27T22:57:48.295Z,100.00
2022-09-27T23:00:14.922Z,100.00
2022-09-27T23:02:41.503Z,100.00
2022-09-27T23:05:08.591Z,100.00
2022-09-27T23:07:35.169Z,100.00
2022-09-27T23:10:01.716Z,100.00
2022-09-27T23:12:28.271Z,100.00
2022-09-27T23:14:54.752Z,100.00
2022-09-27T23:17:21.314Z,100.00
2022-09-27T23:19:47.899Z,100.00
2022-09-27T23:22:14.482Z,100.00
2022-09-27T23:24:41.053Z,100.00
2022-09-27T23:27:26.227Z,100.00
2022-09-27T23:29:52.750Z,100.00
2022-09-27T23:32:19.309Z,100.00
2022-09-27T23:34:46.077Z,100.00
2022-09-27T23:37:12.678Z,100.00
2022-09-27T23:39:39.248Z,100.00
2022-09-27T23:42:06.547Z,100.00
2022-09-27T23:44:33.087Z,100.00
2022-09-27T23:47:00.530Z,100.00
2022-09-27T23:49:27.670Z,100.00
2022-09-27T23:51:55.378Z,100.00
2022-09-27T23:54:21.943Z,100.00
2022-09-27T23:56:49.344Z,100.00
2022-09-27T23:59:16.919Z,100.00
